Time;durP1;ratioP1;P1;durP2;ratioP2;P2;SDS_P1;SDS_P2;PMS_P1;PMS_P2;Temp;Humidity;BMP_temperature;BMP_pressure;BME280_temperature;BME280_humidity;BME280_pressure;Samples;Min_cycle;Max_cycle;Signal;HPM_P1;HPM_P2
2023/07/28 00:01:50;;;;;;;0.55;0.55;;;;;;;;;;4993826;28;20418;-71
2023/07/28 00:04:16;;;;;;;2.15;0.63;;;;;;;;;;4994121;28;20073;-72
2023/07/28 00:06:42;;;;;;;1.38;0.50;;;;;;;;;;4993574;28;20030;-72
2023/07/28 00:09:08;;;;;;;4.13;1.35;;;;;;;;;;4993242;28;20386;-72
2023/07/28 00:11:34;;;;;;;0.65;0.65;;;;;;;;;;4993859;28;20022;-72
2023/07/28 00:14:00;;;;;;;0.88;0.57;;;;;;;;;;4993844;28;20036;-72
2023/07/28 00:16:26;;;;;;;1.40;0.55;;;;;;;;;;4993510;28;20022;-72
2023/07/28 00:18:52;;;;;;;0.75;0.50;;;;;;;;;;4993564;28;20379;-72
2023/07/28 00:21:18;;;;;;;1.10;0.70;;;;;;;;;;4993470;28;20042;-72
2023/07/28 00:23:44;;;;;;;1.20;0.60;;;;;;;;;;4993192;28;20485;-72
2023/07/28 00:26:10;;;;;;;1.33;0.63;;;;;;;;;;4993436;28;20038;-72
2023/07/28 00:28:36;;;;;;;0.95;0.80;;;;;;;;;;4993278;28;20041;-73
2023/07/28 00:31:02;;;;;;;1.70;0.73;;;;;;;;;;4993316;28;20900;-73
2023/07/28 00:33:28;;;;;;;1.50;0.60;;;;;;;;;;4993616;28;20037;-72
2023/07/28 00:35:54;;;;;;;1.77;0.70;;;;;;;;;;4993380;28;20052;-72
2023/07/28 00:38:20;;;;;;;1.15;0.65;;;;;;;;;;4993021;28;20030;-72
2023/07/28 00:40:46;;;;;;;0.75;0.75;;;;;;;;;;4992956;28;20041;-71
2023/07/28 00:43:12;;;;;;;1.02;0.63;;;;;;;;;;4993372;28;20035;-72
2023/07/28 00:45:39;;;;;;;1.48;0.65;;;;;;;;;;4992756;28;20525;-73
2023/07/28 00:48:08;;;;;;;2.25;0.90;;;;;;;;;;4990454;28;20062;-72
2023/07/28 00:50:34;;;;;;;2.83;0.90;;;;;;;;;;4993111;28;20038;-73
2023/07/28 00:53:00;;;;;;;2.30;0.95;;;;;;;;;;4993039;28;20097;-73
2023/07/28 00:55:26;;;;;;;1.23;0.80;;;;;;;;;;4993120;28;20022;-71
2023/07/28 00:57:52;;;;;;;2.67;0.80;;;;;;;;;;4992363;28;20022;-72
2023/07/28 01:00:18;;;;;;;1.40;0.90;;;;;;;;;;4992747;28;20049;-69
2023/07/28 01:02:44;;;;;;;1.33;1.10;;;;;;;;;;4992756;28;20026;-72
2023/07/28 01:05:10;;;;;;;1.20;1.10;;;;;;;;;;4992673;28;20033;-69
2023/07/28 01:08:03;;;;;;;1.10;0.95;;;;;;;;;;4992404;28;20073;-70
2023/07/28 01:10:31;;;;;;;1.40;1.30;;;;;;;;;;4984935;28;20052;-69
2023/07/28 01:12:57;;;;;;;6.05;1.33;;;;;;;;;;4992598;28;20117;-70
2023/07/28 01:15:23;;;;;;;4.28;1.70;;;;;;;;;;4992285;28;20026;-71
2023/07/28 01:17:49;;;;;;;2.70;1.70;;;;;;;;;;4992409;28;20089;-71
2023/07/28 01:20:15;;;;;;;2.05;1.70;;;;;;;;;;4990644;28;20588;-71
2023/07/28 01:22:49;;;;;;;4.22;2.35;;;;;;;;;;4992189;28;20513;-71
2023/07/28 01:25:15;;;;;;;5.00;1.98;;;;;;;;;;4989904;28;20075;-70
2023/07/28 01:27:42;;;;;;;2.95;1.98;;;;;;;;;;4992118;28;20089;-72
2023/07/28 01:30:09;;;;;;;1.92;1.60;;;;;;;;;;4992168;28;20022;-72
2023/07/28 01:32:35;;;;;;;2.78;2.28;;;;;;;;;;4990178;28;20033;-72
2023/07/28 01:35:03;;;;;;;4.05;2.10;;;;;;;;;;4991096;28;20444;-72
2023/07/28 01:37:29;;;;;;;2.38;2.17;;;;;;;;;;4991971;28;20479;-71
2023/07/28 01:39:55;;;;;;;3.53;2.20;;;;;;;;;;4990724;28;20033;-71
2023/07/28 01:42:21;;;;;;;3.55;2.90;;;;;;;;;;4991776;28;20025;-71
2023/07/28 01:44:47;;;;;;;4.28;2.70;;;;;;;;;;4992081;28;20027;-72
2023/07/28 01:47:13;;;;;;;34.22;3.92;;;;;;;;;;4991884;28;20030;-72
2023/07/28 01:49:39;;;;;;;5.38;3.20;;;;;;;;;;4991969;28;20466;-71
2023/07/28 01:52:05;;;;;;;3.80;3.30;;;;;;;;;;4989825;28;20094;-72
2023/07/28 01:54:31;;;;;;;6.60;3.45;;;;;;;;;;4990273;28;20517;-72
2023/07/28 01:56:57;;;;;;;7.10;3.63;;;;;;;;;;4991626;28;20027;-72
2023/07/28 01:59:23;;;;;;;4.28;2.97;;;;;;;;;;4991773;28;20041;-72
2023/07/28 02:01:49;;;;;;;4.85;2.90;;;;;;;;;;4991672;28;20023;-72
2023/07/28 02:04:15;;;;;;;4.70;2.80;;;;;;;;;;4991730;28;20038;-72
2023/07/28 02:06:41;;;;;;;33.78;4.53;;;;;;;;;;4990457;28;20057;-72
2023/07/28 02:09:08;;;;;;;4.65;3.15;;;;;;;;;;4990250;28;20034;-71
2023/07/28 02:11:34;;;;;;;8.45;3.47;;;;;;;;;;4990319;28;20022;-71
2023/07/28 02:14:00;;;;;;;3.20;2.90;;;;;;;;;;4991682;28;20409;-73
2023/07/28 02:16:27;;;;;;;4.15;3.28;;;;;;;;;;4991386;28;20023;-72
2023/07/28 02:18:54;;;;;;;7.55;2.85;;;;;;;;;;4990146;28;20441;-73
2023/07/28 02:21:20;;;;;;;3.55;3.00;;;;;;;;;;4991434;28;20113;-72
2023/07/28 02:23:46;;;;;;;3.83;2.88;;;;;;;;;;4991674;28;20022;-71
2023/07/28 02:26:12;;;;;;;3.55;2.65;;;;;;;;;;4991565;28;20030;-71
2023/07/28 02:28:38;;;;;;;4.68;2.75;;;;;;;;;;4990926;28;20023;-71
2023/07/28 02:31:04;;;;;;;3.42;2.22;;;;;;;;;;4991061;28;20022;-71
2023/07/28 02:33:31;;;;;;;3.75;2.45;;;;;;;;;;4991507;28;20494;-70
2023/07/28 02:35:57;;;;;;;5.72;2.67;;;;;;;;;;4991224;28;20037;-71
2023/07/28 02:38:23;;;;;;;2.10;2.00;;;;;;;;;;4990993;28;20030;-73
2023/07/28 02:40:49;;;;;;;3.42;2.50;;;;;;;;;;4989922;28;20030;-72
2023/07/28 02:43:15;;;;;;;5.43;2.60;;;;;;;;;;4989861;28;20772;-71
2023/07/28 02:45:42;;;;;;;4.38;2.67;;;;;;;;;;4991430;28;20050;-71
2023/07/28 02:48:08;;;;;;;2.83;2.10;;;;;;;;;;4991162;28;20401;-73
2023/07/28 02:50:34;;;;;;;3.28;2.40;;;;;;;;;;4990028;28;20117;-72
2023/07/28 02:53:00;;;;;;;2.72;2.00;;;;;;;;;;4991134;28;20032;-73
2023/07/28 02:55:26;;;;;;;3.20;2.35;;;;;;;;;;4990109;28;20109;-73
2023/07/28 02:57:52;;;;;;;5.20;2.72;;;;;;;;;;4989747;28;20029;-72
2023/07/28 03:00:18;;;;;;;2.38;2.17;;;;;;;;;;4991257;28;20022;-70
2023/07/28 03:02:44;;;;;;;5.18;2.85;;;;;;;;;;4991193;28;20018;-73
2023/07/28 03:05:12;;;;;;;3.70;3.25;;;;;;;;;;4993424;28;20029;-71
2023/07/28 03:07:38;;;;;;;4.88;2.80;;;;;;;;;;4994606;28;20034;-73
2023/07/28 03:10:04;;;;;;;2.67;1.80;;;;;;;;;;4994766;28;20031;-74
2023/07/28 03:12:30;;;;;;;3.25;2.50;;;;;;;;;;4994688;28;20046;-73
2023/07/28 03:14:56;;;;;;;4.38;3.15;;;;;;;;;;4994479;28;20018;-72
2023/07/28 03:17:22;;;;;;;2.72;2.38;;;;;;;;;;4994438;28;20490;-72
2023/07/28 03:19:48;;;;;;;4.80;3.33;;;;;;;;;;4994885;28;20026;-71
2023/07/28 03:22:14;;;;;;;9.27;5.45;;;;;;;;;;4994554;28;20387;-72
2023/07/28 03:24:41;;;;;;;2.35;1.95;;;;;;;;;;4994568;28;20021;-72
2023/07/28 03:27:08;;;;;;;3.05;2.15;;;;;;;;;;4994301;28;20097;-71
2023/07/28 03:29:34;;;;;;;4.20;2.20;;;;;;;;;;4994384;28;20030;-72
2023/07/28 03:32:00;;;;;;;3.30;1.92;;;;;;;;;;4994225;28;20414;-72
2023/07/28 03:34:26;;;;;;;7.32;2.10;;;;;;;;;;4992758;28;20014;-72
2023/07/28 03:36:52;;;;;;;2.55;1.52;;;;;;;;;;4994467;28;20101;-72
2023/07/28 03:39:18;;;;;;;1.98;1.70;;;;;;;;;;4994066;28;20113;-72
2023/07/28 03:41:44;;;;;;;3.10;1.90;;;;;;;;;;4994206;28;20015;-72
2023/07/28 03:44:10;;;;;;;3.38;1.80;;;;;;;;;;4994113;28;20027;-72
2023/07/28 03:46:36;;;;;;;1.83;1.73;;;;;;;;;;4994061;28;20435;-71
2023/07/28 03:49:02;;;;;;;5.93;4.28;;;;;;;;;;4994180;28;20030;-72
2023/07/28 03:51:28;;;;;;;2.30;2.10;;;;;;;;;;4994252;28;20049;-72
2023/07/28 03:53:54;;;;;;;4.55;2.15;;;;;;;;;;4994344;28;20084;-72
2023/07/28 03:56:20;;;;;;;2.75;1.40;;;;;;;;;;4994011;28;20026;-72
2023/07/28 03:58:46;;;;;;;3.40;2.13;;;;;;;;;;4994036;28;20022;-71
2023/07/28 04:01:13;;;;;;;2.20;2.00;;;;;;;;;;4993985;28;20429;-71
2023/07/28 04:03:39;;;;;;;2.30;1.98;;;;;;;;;;4994240;28;20027;-71
2023/07/28 04:06:12;;;;;;;2.22;1.75;;;;;;;;;;4993872;28;20034;-71
2023/07/28 04:08:38;;;;;;;1.50;1.30;;;;;;;;;;4993823;28;20125;-72
2023/07/28 04:11:04;;;;;;;2.85;1.65;;;;;;;;;;4994098;28;20522;-72
2023/07/28 04:13:30;;;;;;;2.42;1.70;;;;;;;;;;4993922;28;20077;-72
2023/07/28 04:15:56;;;;;;;1.92;1.60;;;;;;;;;;4994033;28;20022;-72
2023/07/28 04:18:23;;;;;;;1.50;1.40;;;;;;;;;;4994609;28;20035;-72
2023/07/28 04:20:49;;;;;;;1.83;1.42;;;;;;;;;;4995435;28;20018;-73
2023/07/28 04:23:15;;;;;;;0.85;0.85;;;;;;;;;;4995668;28;20033;-72
2023/07/28 04:25:41;;;;;;;2.35;1.17;;;;;;;;;;4995282;28;20023;-72
2023/07/28 04:28:07;;;;;;;1.42;1.20;;;;;;;;;;4995579;28;20033;-72
2023/07/28 04:30:33;;;;;;;2.25;1.20;;;;;;;;;;4994548;28;20556;-73
2023/07/28 04:32:59;;;;;;;4.13;1.50;;;;;;;;;;4994427;28;20038;-72
2023/07/28 04:35:25;;;;;;;1.40;1.20;;;;;;;;;;4996224;28;20030;-73
2023/07/28 04:37:51;;;;;;;2.38;1.20;;;;;;;;;;4995032;28;20029;-73
2023/07/28 04:40:17;;;;;;;1.20;1.10;;;;;;;;;;4993908;28;20042;-73
2023/07/28 04:42:43;;;;;;;1.40;1.02;;;;;;;;;;4994669;28;20118;-72
2023/07/28 04:45:09;;;;;;;3.13;0.90;;;;;;;;;;4993982;28;20058;-71
2023/07/28 04:47:35;;;;;;;3.72;1.30;;;;;;;;;;4992841;28;20573;-72
2023/07/28 04:50:01;;;;;;;2.63;1.45;;;;;;;;;;4993716;28;20109;-71
2023/07/28 04:52:27;;;;;;;1.00;0.93;;;;;;;;;;4992209;28;20105;-73
2023/07/28 04:54:53;;;;;;;3.15;1.17;;;;;;;;;;4993079;28;20139;-71
2023/07/28 04:57:19;;;;;;;3.90;1.17;;;;;;;;;;4992648;28;20018;-70
2023/07/28 04:59:45;;;;;;;2.17;1.05;;;;;;;;;;4993226;28;20093;-72
2023/07/28 05:02:11;;;;;;;1.80;0.98;;;;;;;;;;4991423;28;20117;-71
2023/07/28 05:04:37;;;;;;;1.27;1.10;;;;;;;;;;4992806;28;20022;-73
2023/07/28 05:07:04;;;;;;;1.95;1.02;;;;;;;;;;4991204;28;20076;-72
2023/07/28 05:09:30;;;;;;;1.20;1.10;;;;;;;;;;4992602;28;20029;-73
2023/07/28 05:11:56;;;;;;;1.95;1.00;;;;;;;;;;4991357;28;20026;-70
2023/07/28 05:14:22;;;;;;;1.30;1.00;;;;;;;;;;4992452;28;20031;-71
2023/07/28 05:16:48;;;;;;;1.98;1.40;;;;;;;;;;4992555;28;20435;-70
2023/07/28 05:19:14;;;;;;;2.53;1.13;;;;;;;;;;4992518;28;20041;-72
2023/07/28 05:21:40;;;;;;;1.55;1.13;;;;;;;;;;4992369;28;20049;-72
2023/07/28 05:24:06;;;;;;;2.55;0.82;;;;;;;;;;4990721;28;20474;-72
2023/07/28 05:26:32;;;;;;;1.15;1.05;;;;;;;;;;4992209;28;20041;-73
2023/07/28 05:28:58;;;;;;;2.25;1.02;;;;;;;;;;4992343;28;20038;-73
2023/07/28 05:31:24;;;;;;;1.50;1.00;;;;;;;;;;4992826;28;20125;-70
2023/07/28 05:33:50;;;;;;;5.15;1.35;;;;;;;;;;4992251;28;20101;-71
2023/07/28 05:36:16;;;;;;;1.23;0.90;;;;;;;;;;4992407;28;20097;-71
2023/07/28 05:38:42;;;;;;;2.63;1.08;;;;;;;;;;4989625;28;20030;-71
2023/07/28 05:41:08;;;;;;;3.30;1.00;;;;;;;;;;4991097;28;20034;-70
2023/07/28 05:43:34;;;;;;;2.28;0.98;;;;;;;;;;4992105;28;20026;-71
2023/07/28 05:46:00;;;;;;;2.92;1.05;;;;;;;;;;4991371;28;20112;-70
2023/07/28 05:48:27;;;;;;;1.23;1.00;;;;;;;;;;4991885;28;20026;-71
2023/07/28 05:50:53;;;;;;;2.30;0.82;;;;;;;;;;4991509;28;20023;-71
2023/07/28 05:53:21;;;;;;;2.63;1.08;;;;;;;;;;4989689;28;20022;-71
2023/07/28 05:55:47;;;;;;;0.90;0.90;;;;;;;;;;4990310;28;20122;-71
2023/07/28 05:58:13;;;;;;;2.25;1.17;;;;;;;;;;4991361;28;20034;-71
2023/07/28 06:00:40;;;;;;;1.50;1.00;;;;;;;;;;4991567;28;20076;-71
2023/07/28 06:03:07;;;;;;;2.25;0.95;;;;;;;;;;4990363;28;20453;-71
2023/07/28 06:05:33;;;;;;;3.83;1.20;;;;;;;;;;4991479;28;20030;-71
2023/07/28 06:07:59;;;;;;;1.58;0.82;;;;;;;;;;4990875;28;20122;-71
2023/07/28 06:10:25;;;;;;;2.42;0.80;;;;;;;;;;4989287;28;20502;-71
2023/07/28 06:12:51;;;;;;;1.90;0.90;;;;;;;;;;4989443;28;20117;-71
2023/07/28 06:15:17;;;;;;;0.70;0.70;;;;;;;;;;4988577;28;20125;-71
2023/07/28 06:17:43;;;;;;;2.05;0.80;;;;;;;;;;4990191;28;20034;-71
2023/07/28 06:20:09;;;;;;;1.55;1.00;;;;;;;;;;4991605;28;20065;-71
2023/07/28 06:22:36;;;;;;;5.75;0.80;;;;;;;;;;4991749;28;20026;-71
2023/07/28 06:25:02;;;;;;;1.02;0.88;;;;;;;;;;4991592;28;20034;-70
2023/07/28 06:27:29;;;;;;;1.92;1.00;;;;;;;;;;4990908;28;20379;-71
2023/07/28 06:29:55;;;;;;;1.33;0.90;;;;;;;;;;4991375;28;20035;-69
2023/07/28 06:32:23;;;;;;;0.88;0.80;;;;;;;;;;4988187;28;20447;-70
2023/07/28 06:34:49;;;;;;;1.73;0.70;;;;;;;;;;4984640;28;20022;-71
2023/07/28 06:37:15;;;;;;;2.72;0.73;;;;;;;;;;4991007;28;20034;-72
2023/07/28 06:39:41;;;;;;;3.78;0.95;;;;;;;;;;4994904;28;20022;-72
2023/07/28 06:42:07;;;;;;;1.05;0.70;;;;;;;;;;4994875;28;20026;-71
2023/07/28 06:44:33;;;;;;;2.13;0.70;;;;;;;;;;4994351;28;20026;-72
2023/07/28 06:47:00;;;;;;;4.88;1.02;;;;;;;;;;4994580;28;20029;-72
2023/07/28 06:49:26;;;;;;;1.27;0.60;;;;;;;;;;4994445;28;20058;-72
2023/07/28 06:51:52;;;;;;;2.28;1.10;;;;;;;;;;4994328;28;20053;-72
2023/07/28 06:54:18;;;;;;;0.98;0.50;;;;;;;;;;4994602;28;20029;-72
2023/07/28 06:56:43;;;;;;;0.47;0.30;;;25.80;64.40;;;;;;4992467;28;20405;-71
2023/07/28 06:59:09;;;;;;;4.55;1.02;;;25.60;62.90;;;;;;4993602;28;20030;-71
2023/07/28 07:01:35;;;;;;;0.73;0.40;;;24.90;63.60;;;;;;4994931;28;20030;-73
2023/07/28 07:04:00;;;;;;;5.43;0.40;;;25.00;63.50;;;;;;4995140;28;20494;-72
2023/07/28 07:06:26;;;;;;;0.43;0.40;;;25.20;62.30;;;;;;4994846;28;20022;-72
2023/07/28 07:08:52;;;;;;;1.27;0.50;;;24.70;62.80;;;;;;4993279;28;20027;-72
2023/07/28 07:11:18;;;;;;;3.10;0.80;;;24.10;64.80;;;;;;4994720;28;20018;-72
2023/07/28 07:13:43;;;;;;;4.03;0.50;;;23.90;66.40;;;;;;4994866;28;20102;-72
2023/07/28 07:16:18;;;;;;;1.77;0.60;;;23.90;66.10;;;;;;4994509;28;20088;-73
2023/07/28 07:18:44;;;;;;;4.18;0.93;;;24.60;65.70;;;;;;4993152;28;20052;-71
2023/07/28 07:21:10;;;;;;;0.68;0.65;;;24.80;63.70;;;;;;4992772;28;20100;-71
2023/07/28 07:23:36;;;;;;;1.50;0.68;;;24.90;62.90;;;;;;4993486;28;20093;-73
2023/07/28 07:26:02;;;;;;;1.65;0.80;;;25.30;63.50;;;;;;4994579;28;20030;-74
2023/07/28 07:28:28;;;;;;;0.88;0.63;;;26.20;59.50;;;;;;4993028;28;20019;-71
2023/07/28 07:30:54;;;;;;;0.80;0.25;;;27.20;56.80;;;;;;4991703;28;20021;-72
2023/07/28 07:33:20;;;;;;;3.25;0.70;;;27.00;57.10;;;;;;4993333;28;20030;-72
2023/07/28 07:35:46;;;;;;;0.88;0.35;;;26.40;57.00;;;;;;4994423;28;20026;-72
2023/07/28 07:38:12;;;;;;;0.35;0.32;;;;;;;;;;4992670;28;20069;-72
2023/07/28 07:40:38;;;;;;;0.63;0.45;;;;;;;;;;4994263;28;20022;-73
2023/07/28 07:43:04;;;;;;;0.95;0.35;;;;;;;;;;4994370;28;20030;-73
2023/07/28 07:45:33;;;;;;;0.47;0.40;;;;;;;;;;4993152;28;20076;-73
2023/07/28 07:47:59;;;;;;;0.20;0.20;;;;;;;;;;4992667;28;20560;-73
2023/07/28 07:50:26;;;;;;;1.63;0.55;;;;;;;;;;4992881;28;20019;-73
2023/07/28 07:52:52;;;;;;;0.95;0.20;;;;;;;;;;4994114;28;20589;-72
2023/07/28 07:55:18;;;;;;;0.47;0.28;;;;;;;;;;4994251;28;20034;-74
2023/07/28 07:57:44;;;;;;;0.10;0.10;;;;;;;;;;4994151;28;20405;-73
2023/07/28 08:00:10;;;;;;;1.20;0.40;;;;;;;;;;4993845;28;20494;-73
2023/07/28 08:02:37;;;;;;;2.55;0.50;;;;;;;;;;4993602;28;20026;-74
2023/07/28 08:05:03;;;;;;;0.93;0.20;;;;;;;;;;4992659;28;20117;-73
2023/07/28 08:07:29;;;;;;;0.55;0.10;;;;;;;;;;4993515;28;20050;-74
2023/07/28 08:09:55;;;;;;;1.73;0.20;;;;;;;;;;4993810;28;20026;-74
2023/07/28 08:12:21;;;;;;;0.45;0.30;;;;;;;;;;4993671;28;20449;-74
2023/07/28 08:14:47;;;;;;;0.68;0.30;;;;;;;;;;4993819;28;20097;-73
2023/07/28 08:17:13;;;;;;;0.80;0.20;;;;;;;;;;4993643;28;20033;-74
2023/07/28 08:19:39;;;;;;;2.17;0.28;;;;;;;;;;4993763;28;20030;-74
2023/07/28 08:22:05;;;;;;;0.65;0.20;;;;;;;;;;4993234;28;20035;-74
2023/07/28 08:24:31;;;;;;;4.75;0.40;;;26.60;57.60;;;;;;4993590;28;20022;-74
2023/07/28 08:26:57;;;;;;;0.38;0.32;;;27.20;57.00;;;;;;4993378;28;20110;-73
2023/07/28 08:29:22;;;;;;;1.15;0.43;;;28.80;51.60;;;;;;4993271;28;20031;-73
2023/07/28 08:31:48;;;;;;;3.00;0.20;;;29.90;48.40;;;;;;4991851;28;20035;-73
2023/07/28 08:34:17;;;;;;;0.10;0.10;;;29.60;48.20;;;;;;4992991;28;20057;-72
2023/07/28 08:36:43;;;;;;;0.47;0.20;;;29.10;49.70;;;;;;4991828;28;20030;-73
2023/07/28 08:39:09;;;;;;;0.20;0.20;;;28.50;50.20;;;;;;4991994;28;20282;-73
2023/07/28 08:41:35;;;;;;;0.40;0.30;;;27.20;52.90;;;;;;4993251;28;20066;-73
2023/07/28 08:44:01;;;;;;;0.30;0.30;;;26.50;55.70;;;;;;4993428;28;20030;-74
2023/07/28 08:46:27;;;;;;;0.30;0.30;;;26.10;57.10;;;;;;4993174;28;20030;-74
2023/07/28 08:48:55;;;;;;;0.30;0.30;;;25.80;57.70;;;;;;4992812;28;20022;-74
2023/07/28 08:51:23;;;;;;;2.97;0.47;;;25.80;57.90;;;;;;4992971;28;20406;-74
2023/07/28 08:53:49;;;;;;;1.55;0.32;;;25.60;58.20;;;;;;4993259;28;20029;-74
2023/07/28 08:56:17;;;;;;;0.35;0.20;;;;;;;;;;4992967;28;20026;-74
2023/07/28 08:58:43;;;;;;;3.50;0.28;;;;;;;;;;4992581;28;20564;-74
2023/07/28 09:01:09;;;;;;;0.30;0.30;;;;;;;;;;4992485;28;20026;-72
2023/07/28 09:03:40;;;;;;;0.40;0.20;;;;;;;;;;4993036;28;20036;-73
2023/07/28 09:06:08;;;;;;;2.60;0.40;;;;;;;;;;4993319;28;20429;-73
2023/07/28 09:08:35;;;;;;;1.35;0.50;;;;;;;;;;4992549;28;20047;-73
2023/07/28 09:11:06;;;;;;;1.08;0.30;;;;;;;;;;4992925;28;20391;-73
2023/07/28 09:13:37;;;;;;;0.68;0.50;;;;;;;;;;4985177;28;20397;-73
2023/07/28 09:16:03;;;;;;;0.20;0.20;;;;;;;;;;4992692;28;20113;-73
2023/07/28 09:18:30;;;;;;;2.00;0.80;;;;;;;;;;4992494;28;20022;-73
2023/07/28 09:20:56;;;;;;;2.65;0.40;;;;;;;;;;4992672;28;20109;-73
2023/07/28 09:23:30;;;;;;;1.33;0.50;;;;;;;;;;4992482;28;20046;-72
2023/07/28 09:26:01;;;;;;;0.50;0.50;;;;;;;;;;4992404;28;20090;-72
2023/07/28 09:28:39;;;;;;;1.80;0.38;;;;;;;;;;4991924;28;20085;-73
2023/07/28 09:31:05;;;;;;;0.38;0.32;;;;;;;;;;4992492;28;20026;-73
2023/07/28 09:33:35;;;;;;;2.28;0.57;;;;;;;;;;4992417;28;20022;-74
2023/07/28 09:36:16;;;;;;;1.17;0.30;;;;;;;;;;4992360;28;20102;-74
2023/07/28 09:38:42;;;;;;;;;;;;;;;;;;4992080;28;20033;-74
2023/07/28 09:41:11;;;;;;;6.05;0.50;;;24.50;63.10;;;;;;4990709;28;19985;-73
2023/07/28 09:43:40;;;;;;;1.27;0.57;;;25.30;61.00;;;;;;4992257;28;20054;-74
2023/07/28 09:46:10;;;;;;;3.33;0.32;;;26.50;57.80;;;;;;4992231;28;20030;-74
2023/07/28 09:48:38;;;;;;;0.70;0.28;;;27.20;55.80;;;;;;4991705;28;20057;-74
2023/07/28 09:51:14;;;;;;;0.38;0.20;;;26.80;56.00;;;;;;4992051;28;20102;-74
2023/07/28 09:54:12;;;;;;;1.55;0.43;;;26.40;56.10;;;;;;4985330;28;20069;-73
2023/07/28 09:56:38;;;;;;;2.08;0.40;;;26.60;56.50;;;;;;4983905;28;20042;-74
2023/07/28 09:59:11;;;;;;;2.80;0.63;;;26.90;55.70;;;;;;4991929;28;20074;-74
2023/07/28 10:01:39;;;;;;;1.10;0.47;;;26.60;56.00;;;;;;4984790;28;20022;-74
2023/07/28 10:04:05;;;;;;;0.20;0.20;;;25.90;57.60;;;;;;4991817;28;20031;-74
2023/07/28 10:06:33;;;;;;;2.15;0.25;;;25.70;58.00;;;;;;4982394;28;20034;-73
2023/07/28 10:08:59;;;;;;;0.52;0.38;;;25.50;59.20;;;;;;4991225;28;20080;-74
2023/07/28 10:11:26;;;;;;;0.77;0.30;;;25.50;59.50;;;;;;4990500;28;20670;-73
2023/07/28 10:13:54;;;;;;;0.75;0.40;;;25.70;58.40;;;;;;4989189;28;20049;-74
2023/07/28 10:16:30;;;;;;;0.65;0.30;;;25.70;57.80;;;;;;4989547;28;20023;-74
2023/07/28 10:18:56;;;;;;;2.92;0.32;;;25.90;57.60;;;;;;4998874;28;20037;-73
2023/07/28 10:21:27;;;;;;;0.52;0.20;;;26.00;58.50;;;;;;4998367;28;20026;-73
2023/07/28 10:23:53;;;;;;;;;;;26.10;57.70;;;;;;5000832;28;20057;-73
2023/07/28 10:26:31;;;;;;;0.73;0.35;;;25.80;58.10;;;;;;4998203;28;19910;-73
2023/07/28 10:29:11;;;;;;;0.47;0.30;;;25.80;58.40;;;;;;4994620;28;20049;-73
2023/07/28 10:31:37;;;;;;;1.65;0.28;;;26.20;57.50;;;;;;4994297;28;20038;-73
2023/07/28 10:34:03;;;;;;;0.38;0.32;;;26.20;57.50;;;;;;4995971;28;20038;-73
2023/07/28 10:36:29;;;;;;;1.75;0.22;;;26.40;57.20;;;;;;4993991;28;20069;-74
2023/07/28 10:39:14;;;;;;;0.55;0.28;;;26.40;56.70;;;;;;4994704;28;20018;-74
2023/07/28 10:42:08;;;;;;;1.33;0.28;;;26.20;58.00;;;;;;4997153;28;20113;-73
2023/07/28 10:44:34;;;;;;;1.13;0.50;;;26.20;57.80;;;;;;4986735;28;20105;-73
2023/07/28 10:47:01;;;;;;;0.88;0.30;;;26.50;57.10;;;;;;4991702;28;20030;-72
2023/07/28 10:49:33;;;;;;;0.15;0.15;;;26.70;57.30;;;;;;4991910;28;20046;-73
2023/07/28 10:51:59;;;;;;;0.55;0.20;;;27.20;56.40;;;;;;4991890;28;20033;-73
2023/07/28 10:54:25;;;;;;;0.35;0.20;;;27.40;54.30;;;;;;4991687;28;20027;-73
2023/07/28 10:56:50;;;;;;;0.20;0.20;;;27.50;54.50;;;;;;4991080;28;20025;-74
2023/07/28 10:59:16;;;;;;;1.58;0.32;;;27.30;55.30;;;;;;4991400;28;20029;-73
2023/07/28 11:01:42;;;;;;;1.05;0.43;;;27.00;54.80;;;;;;4991194;28;20041;-73
2023/07/28 11:04:11;;;;;;;1.27;0.30;;;26.40;55.50;;;;;;4991494;28;20034;-73
2023/07/28 11:06:43;;;;;;;5.72;0.30;;;26.10;56.80;;;;;;4991180;28;20027;-72
2023/07/28 11:09:09;;;;;;;1.45;0.50;;;26.00;58.00;;;;;;4991222;28;20376;-73
2023/07/28 11:11:37;;;;;;;0.43;0.40;;;25.90;57.90;;;;;;4990386;28;20463;-74
2023/07/28 11:14:05;;;;;;;1.42;0.47;;;25.80;58.20;;;;;;4991308;28;20113;-74
2023/07/28 11:16:36;;;;;;;0.30;0.20;;;25.80;58.90;;;;;;4983591;28;20028;-72
2023/07/28 11:19:03;;;;;;;;;;;26.00;59.20;;;;;;4991997;28;20034;-73
2023/07/28 11:21:29;;;;;;;0.10;0.10;;;26.00;57.70;;;;;;4991152;28;20001;-72
2023/07/28 11:23:55;;;;;;;3.60;0.30;;;25.90;58.20;;;;;;4990567;28;20121;-74
2023/07/28 11:26:22;;;;;;;1.85;0.40;;;25.90;57.00;;;;;;4994380;28;20462;-73
2023/07/28 11:28:48;;;;;;;0.30;0.30;;;26.00;56.50;;;;;;4992880;28;20057;-72
2023/07/28 11:31:14;;;;;;;0.52;0.40;;;26.20;56.30;;;;;;4994552;28;20026;-74
2023/07/28 11:33:40;;;;;;;0.85;0.30;;;26.40;54.90;;;;;;4993182;28;20076;-75
2023/07/28 11:36:06;;;;;;;2.40;0.38;;;26.50;54.80;;;;;;4993375;28;20035;-75
2023/07/28 11:38:32;;;;;;;0.88;0.45;;;;;;;;;;4994151;28;20022;-75
2023/07/28 11:40:59;;;;;;;0.50;0.40;;;;;;;;;;4994614;28;20401;-77
2023/07/28 11:43:26;;;;;;;0.38;0.30;;;;;;;;;;4994615;28;20120;-75
2023/07/28 11:45:52;;;;;;;1.75;0.30;;;;;;;;;;4994684;28;20026;-75
2023/07/28 11:48:18;;;;;;;0.82;0.20;;;;;;;;;;4994653;28;20202;-75
2023/07/28 11:50:45;;;;;;;1.02;0.50;;;;;;;;;;4994905;28;20474;-74
2023/07/28 11:53:11;;;;;;;0.40;0.40;;;;;;;;;;4995102;28;20375;-74
2023/07/28 11:55:37;;;;;;;1.83;0.35;;;;;;;;;;4994529;28;20027;-75
2023/07/28 11:58:05;;;;;;;0.90;0.40;;;;;;;;;;4993642;28;20401;-75
2023/07/28 12:00:34;;;;;;;1.70;0.40;;;;;;;;;;4994519;28;20435;-74
2023/07/28 12:03:03;;;;;;;0.30;0.30;;;;;;;;;;4992928;28;20050;-75
2023/07/28 12:05:30;;;;;;;0.32;0.32;;;;;;;;;;4994083;28;20026;-75
2023/07/28 12:07:55;;;;;;;0.52;0.35;;;;;;;;;;4993746;28;20105;-75
2023/07/28 12:10:22;;;;;;;0.70;0.50;;;;;;;;;;4994274;28;20463;-75
2023/07/28 12:12:48;;;;;;;1.45;0.77;;;;;;;;;;4993972;28;20426;-74
2023/07/28 12:15:33;;;;;;;0.93;0.55;;;;;;;;;;4992735;28;20112;-76
2023/07/28 12:18:14;;;;;;;2.10;0.60;;;;;;;;;;4993838;28;20034;-75
2023/07/28 12:20:41;;;;;;;1.25;0.60;;;;;;;;;;4994054;28;20435;-76
2023/07/28 12:23:08;;;;;;;2.92;0.50;;;;;;;;;;4993947;28;20029;-76
2023/07/28 12:25:36;;;;;;;1.13;0.70;;;;;;;;;;4994177;28;20038;-75
2023/07/28 12:28:02;;;;;;;1.38;0.50;;;;;;;;;;4992318;28;20370;-75
2023/07/28 12:30:28;;;;;;;6.95;0.70;;;;;;;;;;4993614;28;20022;-76
2023/07/28 12:32:54;;;;;;;0.35;0.25;;;;;;;;;;4993507;28;20034;-75
2023/07/28 12:35:23;;;;;;;2.40;0.40;;;;;;;;;;4993356;28;20030;-75
2023/07/28 12:37:50;;;;;;;2.42;0.52;;;;;;;;;;4993172;28;20487;-75
2023/07/28 12:40:16;;;;;;;1.38;0.47;;;;;;;;;;4993814;28;20061;-76
2023/07/28 12:42:42;;;;;;;1.55;0.50;;;;;;;;;;4994001;28;20073;-76
2023/07/28 12:45:08;;;;;;;0.60;0.38;;;;;;;;;;4993640;28;20097;-74
2023/07/28 12:47:34;;;;;;;2.58;0.32;;;;;;;;;;4993305;28;20044;-75
2023/07/28 12:50:00;;;;;;;0.40;0.40;;;;;;;;;;4993389;28;20083;-73
2023/07/28 12:52:26;;;;;;;1.90;0.45;;;;;;;;;;4993429;28;20049;-75
2023/07/28 12:54:52;;;;;;;2.40;0.68;;;;;;;;;;4993476;28;20029;-75
2023/07/28 12:57:18;;;;;;;2.45;0.55;;;;;;;;;;4993023;28;20035;-75
2023/07/28 12:59:44;;;;;;;1.00;0.43;;;;;;;;;;4993550;28;20112;-74
2023/07/28 13:02:10;;;;;;;2.53;0.63;;;;;;;;;;4993212;28;20149;-76
2023/07/28 13:04:36;;;;;;;2.30;0.60;;;;;;;;;;4993396;28;20026;-74
2023/07/28 13:07:02;;;;;;;5.22;2.28;;;;;;;;;;4992934;28;20051;-76
2023/07/28 13:09:28;;;;;;;0.50;0.40;;;;;;;;;;4993292;28;20034;-75
2023/07/28 13:11:55;;;;;;;1.88;0.50;;;;;;;;;;4993071;28;20029;-75
2023/07/28 13:14:21;;;;;;;3.20;0.85;;;;;;;;;;4993031;28;20401;-76
2023/07/28 13:16:47;;;;;;;2.33;0.40;;;;;;;;;;4992542;28;20023;-75
2023/07/28 13:19:13;;;;;;;2.92;0.60;;;;;;;;;;4992737;28;20030;-75
2023/07/28 13:21:39;;;;;;;0.50;0.50;;;;;;;;;;4992587;28;20030;-75
2023/07/28 13:24:05;;;;;;;1.63;0.40;;;;;;;;;;4992635;28;20026;-75
2023/07/28 13:26:31;;;;;;;1.17;0.60;;;;;;;;;;4992839;28;20549;-76
2023/07/28 13:28:58;;;;;;;0.60;0.40;;;;;;;;;;4991365;28;20582;-76
2023/07/28 13:31:24;;;;;;;1.00;0.60;;;;;;;;;;4992358;28;20030;-75
2023/07/28 13:33:50;;;;;;;0.50;0.50;;;;;;;;;;4992915;28;20030;-74
2023/07/28 13:36:39;;;;;;;1.05;0.57;;;;;;;;;;4992884;28;20029;-75
2023/07/28 13:39:06;;;;;;;1.02;0.50;;;;;;;;;;4992960;28;20093;-76
2023/07/28 13:41:32;;;;;;;1.02;0.57;;;;;;;;;;4992435;28;20562;-76
2023/07/28 13:43:58;;;;;;;2.58;0.43;;;;;;;;;;4992605;28;20034;-75
2023/07/28 13:46:24;;;;;;;3.85;0.68;;;;;;;;;;4992277;28;20034;-76
2023/07/28 13:48:50;;;;;;;1.05;0.55;;;;;;;;;;4992145;28;20592;-76
2023/07/28 13:51:16;;;;;;;1.95;0.47;;;;;;;;;;4993399;28;20094;-77
2023/07/28 13:53:42;;;;;;;0.60;0.50;;;;;;;;;;4992626;28;20057;-76
2023/07/28 13:56:08;;;;;;;0.75;0.65;;;;;;;;;;4992538;28;20038;-76
2023/07/28 13:58:34;;;;;;;0.40;0.40;;;;;;;;;;4992278;28;20053;-77
2023/07/28 14:01:00;;;;;;;0.85;0.47;;;;;;;;;;4992599;28;20514;-77
2023/07/28 14:03:26;;;;;;;0.85;0.43;;;;;;;;;;4993857;28;20030;-76
2023/07/28 14:05:52;;;;;;;0.68;0.43;;;;;;;;;;4992154;28;20106;-73
2023/07/28 14:08:18;;;;;;;2.45;0.50;;;;;;;;;;4991704;28;20030;-74
2023/07/28 14:10:45;;;;;;;0.47;0.40;;;;;;;;;;4991944;28;20054;-74
2023/07/28 14:13:11;;;;;;;0.40;0.40;;;;;;;;;;4992026;28;20049;-75
2023/07/28 14:15:37;;;;;;;1.67;0.40;;;;;;;;;;4991898;28;20029;-77